Time;durP1;ratioP1;P1;durP2;ratioP2;P2;SDS_P1;SDS_P2;PMS_P1;PMS_P2;Temp;Humidity;BMP_temperature;BMP_pressure;BME280_temperature;BME280_humidity;BME280_pressure;Samples;Min_cycle;Max_cycle;Signal;HPM_P1;HPM_P2
2023/03/12 00:01:33;;;;;;;1999.90;999.90;;;1.70;99.90;;;;;;6667235;89;20711;-76
2023/03/12 00:11:34;;;;;;;1999.90;999.90;;;1.70;99.90;;;;;;6673355;89;20626;-77
2023/03/12 00:21:34;;;;;;;1999.90;999.90;;;1.90;99.90;;;;;;6674208;88;20225;-78
2023/03/12 00:31:35;;;;;;;1999.90;999.90;;;1.80;99.90;;;;;;6671124;89;20291;-77
2023/03/12 00:41:35;;;;;;;1999.90;999.90;;;1.90;99.90;;;;;;6668647;88;20254;-77
2023/03/12 00:51:36;;;;;;;1999.90;999.90;;;1.90;99.90;;;;;;6670735;89;20214;-77
2023/03/12 01:01:37;;;;;;;1999.90;999.90;;;1.90;99.90;;;;;;6669953;88;21220;-77
2023/03/12 01:11:38;;;;;;;1999.90;999.90;;;1.90;99.90;;;;;;6670226;89;20577;-78
2023/03/12 01:21:38;;;;;;;1999.90;999.90;;;1.90;99.90;;;;;;6676968;89;20281;-76
2023/03/12 01:31:39;;;;;;;1999.90;999.90;;;1.90;99.90;;;;;;6673511;89;20215;-76
2023/03/12 01:41:40;;;;;;;1999.90;999.90;;;1.90;99.90;;;;;;6684734;88;20723;-76
2023/03/12 01:52:04;;;;;;;1999.90;999.90;;;2.00;99.90;;;;;;6670204;89;20274;-75
2023/03/12 02:02:06;;;;;;;1999.90;999.90;;;1.90;99.90;;;;;;6672546;89;20690;-76
2023/03/12 02:12:08;;;;;;;1999.90;999.90;;;1.90;99.90;;;;;;6668612;89;20212;-76
2023/03/12 02:22:11;;;;;;;1999.90;999.90;;;1.90;99.90;;;;;;6663441;88;20258;-77
2023/03/12 02:32:20;;;;;;;1999.90;999.90;;;1.90;99.90;;;;;;6673645;88;20250;-79
2023/03/12 02:42:22;;;;;;;1999.90;999.90;;;2.00;99.90;;;;;;6670026;89;20232;-78
2023/03/12 02:52:23;;;;;;;1999.90;999.90;;;2.00;99.90;;;;;;6671045;88;20241;-77
2023/03/12 03:02:24;;;;;;;1999.90;999.90;;;2.00;99.90;;;;;;6713090;77;20188;-76
2023/03/12 03:12:25;;;;;;;1999.90;999.90;;;2.00;99.90;;;;;;6693841;88;20213;-76
2023/03/12 03:22:25;;;;;;;1999.90;999.90;;;2.10;99.90;;;;;;6654946;88;20244;-77
2023/03/12 03:32:26;;;;;;;1999.90;999.90;;;2.20;99.90;;;;;;6658350;88;20608;-76
2023/03/12 03:42:26;;;;;;;1999.90;999.90;;;2.30;99.90;;;;;;6650725;88;20537;-76
2023/03/12 03:52:27;;;;;;;1999.90;999.90;;;2.30;99.90;;;;;;6651745;88;20288;-77
2023/03/12 04:02:27;;;;;;;1999.90;999.90;;;2.30;99.90;;;;;;6642183;88;20204;-77
2023/03/12 04:12:28;;;;;;;1999.90;999.90;;;2.40;99.90;;;;;;6654271;88;20187;-76
2023/03/12 04:22:29;;;;;;;1999.90;999.90;;;2.40;99.90;;;;;;6677587;88;20301;-76
2023/03/12 04:32:29;;;;;;;1999.90;999.90;;;2.30;99.90;;;;;;6654912;88;20218;-76
2023/03/12 04:42:30;;;;;;;1999.90;999.90;;;2.40;99.90;;;;;;6649404;89;20658;-76
2023/03/12 04:52:30;;;;;;;1999.90;999.90;;;2.40;99.90;;;;;;6707201;88;20262;-76
2023/03/12 05:02:31;;;;;;;1999.90;999.90;;;2.30;99.90;;;;;;6678576;88;20192;-76
2023/03/12 05:12:31;;;;;;;1999.90;999.90;;;2.20;99.90;;;;;;6658120;88;20243;-76
2023/03/12 05:22:32;;;;;;;1999.90;999.90;;;2.10;99.90;;;;;;6664878;88;20786;-76
2023/03/12 05:32:32;;;;;;;1999.90;999.90;;;2.00;99.90;;;;;;6658027;88;20237;-78
2023/03/12 05:42:33;;;;;;;1999.90;999.90;;;1.70;99.90;;;;;;6666341;88;20555;-76
2023/03/12 05:52:33;;;;;;;1999.90;999.90;;;1.50;99.90;;;;;;6665669;88;20289;-76
2023/03/12 06:02:34;;;;;;;1999.90;999.90;;;1.40;99.90;;;;;;6633769;88;20205;-77
2023/03/12 06:12:34;;;;;;;1999.90;999.90;;;1.50;99.90;;;;;;6643463;89;20192;-77
2023/03/12 06:22:35;;;;;;;1999.90;999.90;;;1.50;99.90;;;;;;6660553;88;20200;-77
2023/03/12 06:32:36;;;;;;;1999.90;999.90;;;1.60;99.90;;;;;;6675059;88;20300;-78
2023/03/12 06:42:37;;;;;;;1999.90;999.90;;;1.70;99.90;;;;;;6644364;89;20214;-77
2023/03/12 06:52:39;;;;;;;1999.90;999.90;;;1.90;99.90;;;;;;6651293;88;20171;-76
2023/03/12 07:02:39;;;;;;;1999.90;999.90;;;2.00;99.90;;;;;;6676349;88;20188;-76
2023/03/12 07:12:40;;;;;;;1999.90;999.90;;;2.10;99.90;;;;;;6724887;88;20316;-76
2023/03/12 07:22:41;;;;;;;1999.90;999.90;;;2.20;99.90;;;;;;6733975;88;20226;-76
2023/03/12 07:32:41;;;;;;;1999.90;999.90;;;2.20;99.90;;;;;;6707991;88;20613;-77
2023/03/12 07:42:42;;;;;;;1999.90;999.90;;;2.20;99.90;;;;;;6658235;88;20208;-75
2023/03/12 07:52:43;;;;;;;1999.90;999.90;;;2.40;99.90;;;;;;6650264;88;20239;-76
2023/03/12 08:02:44;;;;;;;1999.90;999.90;;;2.40;99.90;;;;;;6645224;88;20623;-76
2023/03/12 08:12:44;;;;;;;1999.90;999.90;;;2.50;99.90;;;;;;6658360;88;20488;-76
2023/03/12 08:22:45;;;;;;;1999.90;999.90;;;2.80;99.90;;;;;;6644823;88;20655;-75
2023/03/12 08:32:45;;;;;;;1999.90;999.90;;;2.90;99.90;;;;;;6654802;88;20195;-75
2023/03/12 08:42:46;;;;;;;1999.90;999.90;;;3.00;99.90;;;;;;6641578;88;20201;-76
2023/03/12 08:52:47;;;;;;;1999.90;999.90;;;3.20;99.90;;;;;;6655559;88;20711;-76
2023/03/12 09:03:28;;;;;;;1999.90;999.90;;;3.50;99.90;;;;;;6652000;77;20210;-77
2023/03/12 09:13:29;;;;;;;1999.90;999.90;;;3.80;99.90;;;;;;6659012;88;20169;-78
2023/03/12 09:23:29;;;;;;;1999.90;999.90;;;4.20;99.90;;;;;;6657107;88;20201;-78
2023/03/12 09:33:32;;;;;;;1999.90;999.90;;;4.10;99.90;;;;;;6661141;88;20201;-78
2023/03/12 09:43:38;;;;;;;1999.90;999.90;;;3.90;99.90;;;;;;6661861;89;20216;-77
2023/03/12 09:53:56;;;;;;;1999.90;999.90;;;4.00;99.90;;;;;;6660484;88;20201;-77
2023/03/12 10:04:16;;;;;;;1999.90;999.90;;;4.30;99.90;;;;;;6656974;88;20208;-78
2023/03/12 10:14:36;;;;;;;1999.90;999.90;;;4.50;99.90;;;;;;6661715;88;20201;-78
2023/03/12 10:24:48;;;;;;;1999.90;999.90;;;4.70;99.90;;;;;;6655921;88;20212;-79
2023/03/12 10:34:53;;;;;;;1999.90;999.90;;;5.00;99.90;;;;;;6658924;89;20241;-76
2023/03/12 10:44:58;;;;;;;1999.90;999.90;;;5.10;99.90;;;;;;6658258;88;20306;-76
2023/03/12 10:55:15;;;;;;;1999.90;999.90;;;5.20;99.90;;;;;;6658920;88;20192;-77
2023/03/12 11:05:24;;;;;;;1999.90;999.90;;;5.50;99.90;;;;;;6658434;88;20757;-78
2023/03/12 11:15:39;;;;;;;1999.90;999.90;;;6.00;99.90;;;;;;6657137;88;20281;-77
2023/03/12 11:25:39;;;;;;;1999.90;999.90;;;6.50;99.90;;;;;;6655163;88;20201;-77
2023/03/12 11:35:48;;;;;;;1999.90;999.90;;;7.90;99.90;;;;;;6650672;88;20200;-78
2023/03/12 11:46:18;;;;;;;1999.90;999.90;;;9.70;99.90;;;;;;6651120;88;20268;-78
2023/03/12 11:56:39;;;;;;;1999.90;999.90;;;10.20;99.90;;;;;;6653135;88;20217;-78
2023/03/12 12:07:05;;;;;;;1999.90;999.90;;;10.80;99.90;;;;;;6658388;88;20224;-78
2023/03/12 12:17:38;;;;;;;1999.90;999.90;;;11.50;99.90;;;;;;6649419;89;20248;-78
2023/03/12 12:28:32;;;;;;;1999.90;999.90;;;11.50;99.90;;;;;;6651380;88;20757;-78
2023/03/12 12:38:42;;;;;;;1999.90;999.90;;;11.80;99.90;;;;;;6659702;89;20275;-78
2023/03/12 12:48:48;;;;;;;1999.90;999.90;;;12.10;99.90;;;;;;6654655;88;20184;-78
2023/03/12 12:59:14;;;;;;;1999.90;999.90;;;13.20;99.90;;;;;;6657812;88;20260;-79
2023/03/12 13:09:19;;;;;;;1999.90;999.90;;;14.20;99.90;;;;;;6656469;88;20208;-78
2023/03/12 13:19:23;;;;;;;;;;;13.80;99.90;;;;;;6654577;89;20189;-78
2023/03/12 13:29:26;;;;;;;1999.90;999.90;;;12.90;99.90;;;;;;6651354;89;20049;-78
2023/03/12 13:39:34;;;;;;;1999.90;999.90;;;12.50;99.90;;;;;;6654828;89;20213;-78
2023/03/12 13:50:09;;;;;;;1999.90;999.90;;;12.60;99.90;;;;;;6649263;89;20192;-78
2023/03/12 14:00:28;;;;;;;1999.90;999.90;;;12.50;99.90;;;;;;6656415;88;20374;-79
2023/03/12 14:10:51;;;;;;;1999.90;999.90;;;12.50;99.90;;;;;;6660011;88;20287;-78
2023/03/12 14:20:56;;;;;;;1999.90;999.90;;;12.50;99.90;;;;;;6667292;88;20221;-77
2023/03/12 14:31:01;;;;;;;1999.90;999.90;;;12.60;99.90;;;;;;6658372;88;20196;-79
2023/03/12 14:41:19;;;;;;;1999.90;999.90;;;12.60;99.90;;;;;;6655700;89;20413;-79
2023/03/12 14:51:28;;;;;;;1999.90;999.90;;;12.40;99.90;;;;;;6655388;88;20189;-79
2023/03/12 15:01:32;;;;;;;1999.90;999.90;;;12.30;99.90;;;;;;6702734;76;20206;-78
2023/03/12 15:11:35;;;;;;;1999.90;999.90;;;12.30;99.90;;;;;;6721820;88;20582;-80
2023/03/12 15:21:36;;;;;;;1999.90;999.90;;;12.30;99.90;;;;;;6722775;88;20345;-78
2023/03/12 15:31:41;;;;;;;1999.90;999.90;;;12.20;99.90;;;;;;6723548;88;20185;-79
2023/03/12 15:41:48;;;;;;;1999.90;999.90;;;12.20;99.90;;;;;;6722437;88;20206;-77
2023/03/12 15:52:01;;;;;;;1999.90;999.90;;;12.20;99.90;;;;;;6721122;88;20239;-77
2023/03/12 16:02:02;;;;;;;1999.90;999.90;;;12.20;99.90;;;;;;6721619;88;20271;-77
2023/03/12 16:12:03;;;;;;;1999.90;999.90;;;12.20;99.90;;;;;;6722070;88;20671;-80
2023/03/12 16:22:04;;;;;;;1999.90;999.90;;;12.20;99.90;;;;;;6723383;88;20335;-78
2023/03/12 16:32:13;;;;;;;1999.90;999.90;;;12.20;99.90;;;;;;6724552;88;20683;-78
2023/03/12 16:42:18;;;;;;;1999.90;999.90;;;12.00;99.90;;;;;;6724932;88;20695;-78
2023/03/12 16:52:21;;;;;;;1999.90;999.90;;;11.90;99.90;;;;;;6724518;88;20315;-79
2023/03/12 17:02:22;;;;;;;1999.90;999.90;;;12.00;99.90;;;;;;6706056;88;20727;-78
2023/03/12 17:12:29;;;;;;;1999.90;999.90;;;11.90;99.90;;;;;;6705353;88;20275;-78
2023/03/12 17:22:30;;;;;;;1999.90;999.90;;;11.80;99.90;;;;;;6706954;88;21094;-78
2023/03/12 17:32:30;;;;;;;1999.90;999.90;;;11.70;99.90;;;;;;6707838;88;20245;-78
2023/03/12 17:42:33;;;;;;;1999.90;999.90;;;11.70;99.90;;;;;;6706967;88;20233;-78
2023/03/12 17:52:33;;;;;;;1999.90;999.90;;;11.50;99.90;;;;;;6706629;88;20232;-78
2023/03/12 18:02:34;;;;;;;1999.90;999.90;;;11.40;99.90;;;;;;6706119;88;20327;-78
2023/03/12 18:12:36;;;;;;;1999.90;999.90;;;11.30;99.90;;;;;;6706541;88;20256;-78
2023/03/12 18:22:38;;;;;;;1999.90;999.90;;;11.20;99.90;;;;;;6721451;88;20335;-79
2023/03/12 18:32:39;;;;;;;1999.90;999.90;;;11.10;99.90;;;;;;6729872;88;20190;-79
2023/03/12 18:42:43;;;;;;;1999.90;999.90;;;11.30;99.90;;;;;;6724224;88;20652;-78
2023/03/12 18:52:43;;;;;;;1999.90;999.90;;;11.10;99.90;;;;;;6717058;88;20576;-77
2023/03/12 19:02:45;;;;;;;1999.90;999.90;;;11.20;99.90;;;;;;6719620;88;20219;-77
2023/03/12 19:12:46;;;;;;;1999.90;999.90;;;11.10;99.90;;;;;;6713151;88;20194;-79
2023/03/12 19:22:46;;;;;;;1999.90;999.90;;;11.00;99.90;;;;;;6721437;88;20361;-77
2023/03/12 19:32:47;;;;;;;1999.90;999.90;;;11.00;99.90;;;;;;6716375;88;20202;-77
2023/03/12 19:42:47;;;;;;;1999.90;999.90;;;10.90;99.90;;;;;;6718563;88;20846;-78
2023/03/12 19:52:48;;;;;;;1999.90;999.90;;;10.90;99.90;;;;;;6722316;88;20197;-78
2023/03/12 20:02:49;;;;;;;1999.90;999.90;;;10.80;99.90;;;;;;6711613;88;20314;-76
2023/03/12 20:12:49;;;;;;;1999.90;999.90;;;10.70;99.90;;;;;;6711757;88;20521;-77
2023/03/12 20:22:50;;;;;;;1999.90;999.90;;;10.70;99.90;;;;;;6713144;88;20541;-77
2023/03/12 20:32:50;;;;;;;1999.90;999.90;;;10.50;99.90;;;;;;6711706;88;20244;-77
2023/03/12 20:42:51;;;;;;;1999.90;999.90;;;10.30;99.90;;;;;;6710671;88;20205;-77
2023/03/12 20:52:52;;;;;;;1999.90;999.90;;;10.10;99.90;;;;;;6708383;88;20237;-77
2023/03/12 21:02:58;;;;;;;1999.90;999.90;;;10.10;99.90;;;;;;6725071;77;20623;-78
2023/03/12 21:12:59;;;;;;;1999.90;999.90;;;10.00;99.90;;;;;;6663326;89;20414;-75
2023/03/12 21:23:00;;;;;;;1999.90;999.90;;;10.10;99.90;;;;;;6633453;88;20272;-76
2023/03/12 21:33:01;;;;;;;1999.90;999.90;;;10.10;99.90;;;;;;6650800;89;20193;-77
2023/03/12 21:43:03;;;;;;;1999.90;999.90;;;10.20;99.90;;;;;;6644797;89;20264;-76
2023/03/12 21:53:03;;;;;;;1999.90;999.90;;;10.10;99.90;;;;;;6629884;89;20383;-77
2023/03/12 22:03:04;;;;;;;1999.90;999.90;;;10.40;99.90;;;;;;6632933;89;20237;-76
2023/03/12 22:13:04;;;;;;;1999.90;999.90;;;10.50;99.90;;;;;;6638243;89;20197;-78
2023/03/12 22:23:05;;;;;;;1999.90;999.90;;;10.70;99.90;;;;;;6631643;89;20206;-78
2023/03/12 22:33:05;;;;;;;1999.90;999.90;;;10.80;99.90;;;;;;6632234;89;20700;-77
2023/03/12 22:43:06;;;;;;;1999.90;999.90;;;11.00;99.90;;;;;;6629417;89;20213;-77
2023/03/12 22:53:07;;;;;;;1999.90;999.90;;;10.60;99.90;;;;;;6633477;88;20869;-76
2023/03/12 23:03:07;;;;;;;1999.90;999.90;;;11.00;99.90;;;;;;6630007;89;20257;-77
2023/03/12 23:13:08;;;;;;;1999.90;999.90;;;10.80;99.90;;;;;;6641575;89;20255;-77
2023/03/12 23:23:08;;;;;;;1999.90;999.90;;;11.00;99.90;;;;;;6644963;89;20211;-77
2023/03/12 23:33:09;;;;;;;1999.90;999.90;;;10.90;99.90;;;;;;6644977;89;20607;-77
2023/03/12 23:43:09;;;;;;;1999.90;999.90;;;11.00;99.90;;;;;;6639299;89;20205;-77
2023/03/12 23:53:10;;;;;;;1999.90;999.90;;;11.10;99.90;;;;;;6642411;89;20206;-76
